createdAt,value
2023-01-17T00:01:14.552Z,97844.69
2023-01-17T00:16:17.775Z,97828.09
2023-01-17T00:31:21.869Z,97805.98
2023-01-17T00:46:43.686Z,97777.74
2023-01-17T01:02:05.492Z,97750.39
2023-01-17T01:17:27.232Z,97732.55
2023-01-17T01:32:52.098Z,97708.80
2023-01-17T01:48:15.768Z,97673.13
2023-01-17T02:03:26.762Z,97648.37
2023-01-17T02:18:42.072Z,97635.77
2023-01-17T02:34:00.954Z,97627.09
2023-01-17T02:49:04.114Z,97599.54
2023-01-17T03:04:15.497Z,97582.36
2023-01-17T03:19:18.826Z,97572.11
2023-01-17T03:34:22.200Z,97557.56
2023-01-17T03:49:25.350Z,97530.91
2023-01-17T04:04:28.599Z,97532.83
2023-01-17T04:19:34.141Z,97513.67
2023-01-17T04:34:37.258Z,97508.45
2023-01-17T04:49:41.325Z,97503.58
2023-01-17T05:04:45.541Z,97487.39
2023-01-17T05:19:48.726Z,97475.52
2023-01-17T05:34:52.015Z,97491.93
2023-01-17T05:49:55.142Z,97490.92
2023-01-17T06:04:58.488Z,97495.14
2023-01-17T06:20:01.831Z,97503.95
2023-01-17T06:35:05.219Z,97511.52
2023-01-17T06:50:13.693Z,97516.89
2023-01-17T07:05:17.735Z,97521.18
2023-01-17T07:20:20.870Z,97518.89
2023-01-17T07:35:26.871Z,97521.80
2023-01-17T07:50:30.048Z,97522.05
2023-01-17T08:05:33.395Z,97526.41
2023-01-17T08:20:36.723Z,97540.92
2023-01-17T08:35:39.990Z,97545.98
2023-01-17T08:50:43.109Z,97548.09
2023-01-17T09:05:46.460Z,97554.76
2023-01-17T09:20:49.725Z,97574.18
2023-01-17T09:35:52.885Z,97570.33
2023-01-17T09:51:14.581Z,97564.50
2023-01-17T10:06:43.133Z,97567.13
2023-01-17T10:21:59.358Z,97553.70
2023-01-17T10:37:21.900Z,97567.11
2023-01-17T10:52:48.376Z,97578.99
2023-01-17T11:08:03.884Z,97582.96
2023-01-17T11:23:12.749Z,97571.45
2023-01-17T11:38:20.713Z,97563.57
2023-01-17T11:53:30.044Z,97573.45
2023-01-17T12:08:33.301Z,97572.63
2023-01-17T12:23:55.135Z,97574.45
2023-01-17T12:39:01.326Z,97571.38
2023-01-17T12:54:18.432Z,97583.41
2023-01-17T13:09:23.483Z,97611.36
2023-01-17T13:24:33.517Z,97624.04
2023-01-17T13:40:00.847Z,97645.51
2023-01-17T13:55:07.339Z,97664.10
2023-01-17T14:10:28.710Z,97671.73
2023-01-17T14:25:39.967Z,97689.63
2023-01-17T14:41:00.668Z,97706.72
2023-01-17T14:56:15.453Z,97729.20
2023-01-17T15:11:24.810Z,97755.36
2023-01-17T15:26:33.447Z,97786.14
2023-01-17T15:41:40.224Z,97794.64
2023-01-17T15:56:45.815Z,97807.94
2023-01-17T16:11:49.086Z,97815.44
2023-01-17T16:26:52.275Z,97827.64
2023-01-17T16:42:02.879Z,97851.75
2023-01-17T16:57:06.372Z,97870.20
2023-01-17T17:12:09.548Z,97882.85
2023-01-17T17:27:12.932Z,97899.29
2023-01-17T17:42:16.088Z,97894.73
2023-01-17T17:57:19.341Z,97893.60
2023-01-17T18:12:33.711Z,97903.94
2023-01-17T18:27:39.977Z,97912.84
2023-01-17T18:42:43.137Z,97928.54
2023-01-17T18:57:46.524Z,97950.08
2023-01-17T19:12:50.068Z,97961.33
2023-01-17T19:27:53.745Z,97994.34
2023-01-17T19:42:57.309Z,98003.53
2023-01-17T19:58:00.635Z,98005.83
2023-01-17T20:13:04.883Z,98031.75
2023-01-17T20:28:08.185Z,98060.37
2023-01-17T20:43:12.250Z,98104.91
2023-01-17T20:58:16.257Z,98127.17
2023-01-17T21:13:20.759Z,98155.47
2023-01-17T21:28:29.826Z,98149.33
2023-01-17T21:43:33.644Z,98154.48
2023-01-17T21:58:45.747Z,98151.15
2023-01-17T22:13:49.353Z,98170.01
2023-01-17T22:28:53.293Z,98186.89
2023-01-17T22:43:58.859Z,98190.02
2023-01-17T22:59:02.545Z,98188.29
2023-01-17T23:14:08.645Z,98192.75
2023-01-17T23:29:11.795Z,98185.91
2023-01-17T23:44:15.356Z,98191.95
2023-01-17T23:59:18.549Z,98196.35
